sensor_id;sensor_type;location;lat;lon;timestamp;P1;durP1;ratioP1;P2;durP2;ratioP2
76107;SDS011;64834;52.516;10.528;2023-04-25T00:01:59;6.28;;;1.77;;
76107;SDS011;64834;52.516;10.528;2023-04-25T00:04:24;9.27;;;2.70;;
76107;SDS011;64834;52.516;10.528;2023-04-25T00:06:52;5.40;;;2.40;;
76107;SDS011;64834;52.516;10.528;2023-04-25T00:09:21;8.35;;;2.03;;
76107;SDS011;64834;52.516;10.528;2023-04-25T00:11:47;7.70;;;2.05;;
76107;SDS011;64834;52.516;10.528;2023-04-25T00:14:12;5.40;;;1.77;;
76107;SDS011;64834;52.516;10.528;2023-04-25T00:16:37;6.70;;;2.55;;
76107;SDS011;64834;52.516;10.528;2023-04-25T00:19:03;4.35;;;1.90;;
76107;SDS011;64834;52.516;10.528;2023-04-25T00:21:28;9.70;;;2.58;;
76107;SDS011;64834;52.516;10.528;2023-04-25T00:23:54;4.88;;;2.42;;
76107;SDS011;64834;52.516;10.528;2023-04-25T00:26:20;6.72;;;1.75;;
76107;SDS011;64834;52.516;10.528;2023-04-25T00:28:46;4.95;;;2.13;;
76107;SDS011;64834;52.516;10.528;2023-04-25T00:31:12;7.65;;;2.90;;
76107;SDS011;64834;52.516;10.528;2023-04-25T00:33:37;7.78;;;2.78;;
76107;SDS011;64834;52.516;10.528;2023-04-25T00:36:02;7.57;;;2.92;;
76107;SDS011;64834;52.516;10.528;2023-04-25T00:38:28;8.13;;;1.75;;
76107;SDS011;64834;52.516;10.528;2023-04-25T00:40:53;9.95;;;3.30;;
76107;SDS011;64834;52.516;10.528;2023-04-25T00:43:20;8.45;;;3.03;;
76107;SDS011;64834;52.516;10.528;2023-04-25T00:45:46;7.20;;;3.13;;
76107;SDS011;64834;52.516;10.528;2023-04-25T00:48:13;10.48;;;2.90;;
76107;SDS011;64834;52.516;10.528;2023-04-25T00:50:39;6.00;;;3.00;;
76107;SDS011;64834;52.516;10.528;2023-04-25T00:53:05;8.45;;;2.63;;
76107;SDS011;64834;52.516;10.528;2023-04-25T00:55:31;6.70;;;2.38;;
76107;SDS011;64834;52.516;10.528;2023-04-25T00:57:57;6.50;;;2.42;;
76107;SDS011;64834;52.516;10.528;2023-04-25T01:00:22;4.80;;;1.92;;
76107;SDS011;64834;52.516;10.528;2023-04-25T01:02:48;4.65;;;1.67;;
76107;SDS011;64834;52.516;10.528;2023-04-25T01:05:14;6.55;;;2.53;;
76107;SDS011;64834;52.516;10.528;2023-04-25T01:07:40;7.78;;;2.75;;
76107;SDS011;64834;52.516;10.528;2023-04-25T01:10:06;8.75;;;2.67;;
76107;SDS011;64834;52.516;10.528;2023-04-25T01:12:32;4.90;;;2.17;;
76107;SDS011;64834;52.516;10.528;2023-04-25T01:14:57;8.40;;;2.97;;
76107;SDS011;64834;52.516;10.528;2023-04-25T01:17:23;5.75;;;2.53;;
76107;SDS011;64834;52.516;10.528;2023-04-25T01:19:48;10.75;;;3.78;;
76107;SDS011;64834;52.516;10.528;2023-04-25T01:22:14;8.27;;;2.35;;
76107;SDS011;64834;52.516;10.528;2023-04-25T01:24:39;10.25;;;2.72;;
76107;SDS011;64834;52.516;10.528;2023-04-25T01:27:05;6.68;;;2.58;;
76107;SDS011;64834;52.516;10.528;2023-04-25T01:29:31;11.48;;;3.33;;
76107;SDS011;64834;52.516;10.528;2023-04-25T01:31:57;8.40;;;2.60;;
76107;SDS011;64834;52.516;10.528;2023-04-25T01:34:23;11.75;;;2.85;;
76107;SDS011;64834;52.516;10.528;2023-04-25T01:36:49;6.97;;;2.55;;
76107;SDS011;64834;52.516;10.528;2023-04-25T01:39:15;13.50;;;3.88;;
76107;SDS011;64834;52.516;10.528;2023-04-25T01:41:42;9.63;;;3.03;;
76107;SDS011;64834;52.516;10.528;2023-04-25T01:44:07;5.60;;;2.25;;
76107;SDS011;64834;52.516;10.528;2023-04-25T01:46:33;8.98;;;2.83;;
76107;SDS011;64834;52.516;10.528;2023-04-25T01:48:59;12.38;;;3.10;;
76107;SDS011;64834;52.516;10.528;2023-04-25T01:51:25;4.25;;;2.15;;
76107;SDS011;64834;52.516;10.528;2023-04-25T01:53:50;9.75;;;2.88;;
76107;SDS011;64834;52.516;10.528;2023-04-25T01:56:17;11.05;;;2.90;;
76107;SDS011;64834;52.516;10.528;2023-04-25T01:58:43;9.30;;;2.55;;
76107;SDS011;64834;52.516;10.528;2023-04-25T02:01:08;9.60;;;3.05;;
76107;SDS011;64834;52.516;10.528;2023-04-25T02:03:34;10.93;;;4.13;;
76107;SDS011;64834;52.516;10.528;2023-04-25T02:05:59;9.00;;;3.38;;
76107;SDS011;64834;52.516;10.528;2023-04-25T02:08:25;6.80;;;3.05;;
76107;SDS011;64834;52.516;10.528;2023-04-25T02:10:51;9.80;;;3.95;;
76107;SDS011;64834;52.516;10.528;2023-04-25T02:13:17;9.32;;;2.47;;
76107;SDS011;64834;52.516;10.528;2023-04-25T02:15:42;10.00;;;3.30;;
76107;SDS011;64834;52.516;10.528;2023-04-25T02:18:07;13.38;;;3.65;;
76107;SDS011;64834;52.516;10.528;2023-04-25T02:20:32;11.88;;;3.58;;
76107;SDS011;64834;52.516;10.528;2023-04-25T02:22:58;10.30;;;2.90;;
76107;SDS011;64834;52.516;10.528;2023-04-25T02:25:23;17.50;;;4.90;;
76107;SDS011;64834;52.516;10.528;2023-04-25T02:27:49;8.13;;;2.95;;
76107;SDS011;64834;52.516;10.528;2023-04-25T02:30:16;11.52;;;4.05;;
76107;SDS011;64834;52.516;10.528;2023-04-25T02:32:41;8.07;;;2.58;;
76107;SDS011;64834;52.516;10.528;2023-04-25T02:35:07;9.48;;;4.25;;
76107;SDS011;64834;52.516;10.528;2023-04-25T02:37:33;15.90;;;4.57;;
76107;SDS011;64834;52.516;10.528;2023-04-25T02:39:59;11.05;;;4.47;;
76107;SDS011;64834;52.516;10.528;2023-04-25T02:42:25;9.27;;;3.55;;
76107;SDS011;64834;52.516;10.528;2023-04-25T02:44:51;12.57;;;3.83;;
76107;SDS011;64834;52.516;10.528;2023-04-25T02:47:16;18.65;;;4.68;;
76107;SDS011;64834;52.516;10.528;2023-04-25T02:49:41;9.82;;;4.47;;
76107;SDS011;64834;52.516;10.528;2023-04-25T02:52:07;13.93;;;5.25;;
76107;SDS011;64834;52.516;10.528;2023-04-25T02:54:32;11.73;;;4.18;;
76107;SDS011;64834;52.516;10.528;2023-04-25T02:56:57;11.02;;;4.93;;
76107;SDS011;64834;52.516;10.528;2023-04-25T02:59:23;8.90;;;3.30;;
76107;SDS011;64834;52.516;10.528;2023-04-25T03:01:48;13.95;;;5.60;;
76107;SDS011;64834;52.516;10.528;2023-04-25T03:04:13;13.07;;;5.10;;
76107;SDS011;64834;52.516;10.528;2023-04-25T03:06:39;14.65;;;5.47;;
76107;SDS011;64834;52.516;10.528;2023-04-25T03:09:04;9.68;;;4.75;;
76107;SDS011;64834;52.516;10.528;2023-04-25T03:11:29;13.40;;;4.45;;
76107;SDS011;64834;52.516;10.528;2023-04-25T03:13:55;7.05;;;2.85;;
76107;SDS011;64834;52.516;10.528;2023-04-25T03:16:20;15.00;;;4.13;;
76107;SDS011;64834;52.516;10.528;2023-04-25T03:18:46;12.10;;;4.22;;
76107;SDS011;64834;52.516;10.528;2023-04-25T03:21:12;8.18;;;3.15;;
76107;SDS011;64834;52.516;10.528;2023-04-25T03:23:37;14.98;;;5.05;;
76107;SDS011;64834;52.516;10.528;2023-04-25T03:26:02;7.00;;;2.35;;
76107;SDS011;64834;52.516;10.528;2023-04-25T03:28:28;4.75;;;2.50;;
76107;SDS011;64834;52.516;10.528;2023-04-25T03:30:53;8.00;;;3.45;;
76107;SDS011;64834;52.516;10.528;2023-04-25T03:33:19;5.57;;;2.35;;
76107;SDS011;64834;52.516;10.528;2023-04-25T03:35:44;5.65;;;2.58;;
76107;SDS011;64834;52.516;10.528;2023-04-25T03:38:09;7.95;;;2.92;;
76107;SDS011;64834;52.516;10.528;2023-04-25T03:40:35;12.18;;;2.95;;
76107;SDS011;64834;52.516;10.528;2023-04-25T03:43:00;6.88;;;2.38;;
76107;SDS011;64834;52.516;10.528;2023-04-25T03:45:25;8.38;;;2.72;;
76107;SDS011;64834;52.516;10.528;2023-04-25T03:47:51;8.85;;;3.30;;
76107;SDS011;64834;52.516;10.528;2023-04-25T03:50:16;7.28;;;2.53;;
76107;SDS011;64834;52.516;10.528;2023-04-25T03:52:42;9.52;;;3.65;;
76107;SDS011;64834;52.516;10.528;2023-04-25T03:55:08;7.60;;;1.98;;
76107;SDS011;64834;52.516;10.528;2023-04-25T03:57:33;9.02;;;3.40;;
76107;SDS011;64834;52.516;10.528;2023-04-25T03:59:59;6.32;;;1.92;;
76107;SDS011;64834;52.516;10.528;2023-04-25T04:02:24;12.77;;;4.00;;
76107;SDS011;64834;52.516;10.528;2023-04-25T04:04:49;5.80;;;1.65;;
76107;SDS011;64834;52.516;10.528;2023-04-25T04:07:14;18.30;;;3.10;;
76107;SDS011;64834;52.516;10.528;2023-04-25T04:09:40;6.45;;;3.53;;
76107;SDS011;64834;52.516;10.528;2023-04-25T04:12:05;12.10;;;3.17;;
76107;SDS011;64834;52.516;10.528;2023-04-25T04:14:31;17.08;;;3.10;;
76107;SDS011;64834;52.516;10.528;2023-04-25T04:16:56;9.07;;;3.17;;
76107;SDS011;64834;52.516;10.528;2023-04-25T04:19:21;16.10;;;3.20;;
76107;SDS011;64834;52.516;10.528;2023-04-25T04:21:46;19.30;;;3.45;;
76107;SDS011;64834;52.516;10.528;2023-04-25T04:24:12;13.05;;;2.55;;
76107;SDS011;64834;52.516;10.528;2023-04-25T04:26:37;17.42;;;2.33;;
76107;SDS011;64834;52.516;10.528;2023-04-25T04:29:04;11.57;;;2.67;;
76107;SDS011;64834;52.516;10.528;2023-04-25T04:31:29;9.10;;;2.35;;
76107;SDS011;64834;52.516;10.528;2023-04-25T04:33:55;15.68;;;2.55;;
76107;SDS011;64834;52.516;10.528;2023-04-25T04:36:20;7.50;;;1.95;;
76107;SDS011;64834;52.516;10.528;2023-04-25T04:38:46;12.88;;;2.58;;
76107;SDS011;64834;52.516;10.528;2023-04-25T04:41:12;11.35;;;3.35;;
76107;SDS011;64834;52.516;10.528;2023-04-25T04:43:37;8.40;;;2.35;;
76107;SDS011;64834;52.516;10.528;2023-04-25T04:46:04;14.13;;;3.03;;
76107;SDS011;64834;52.516;10.528;2023-04-25T04:48:32;12.88;;;3.25;;
76107;SDS011;64834;52.516;10.528;2023-04-25T04:50:59;17.95;;;2.28;;
76107;SDS011;64834;52.516;10.528;2023-04-25T04:53:24;11.20;;;2.95;;
76107;SDS011;64834;52.516;10.528;2023-04-25T04:55:50;12.30;;;2.97;;
76107;SDS011;64834;52.516;10.528;2023-04-25T04:58:15;13.95;;;3.03;;
76107;SDS011;64834;52.516;10.528;2023-04-25T05:00:40;11.15;;;1.58;;
76107;SDS011;64834;52.516;10.528;2023-04-25T05:03:06;9.55;;;2.45;;
76107;SDS011;64834;52.516;10.528;2023-04-25T05:05:31;3.30;;;1.65;;
76107;SDS011;64834;52.516;10.528;2023-04-25T05:07:56;8.95;;;2.42;;
76107;SDS011;64834;52.516;10.528;2023-04-25T05:10:22;9.30;;;2.30;;
76107;SDS011;64834;52.516;10.528;2023-04-25T05:12:47;7.28;;;2.33;;
76107;SDS011;64834;52.516;10.528;2023-04-25T05:15:13;18.85;;;3.30;;
76107;SDS011;64834;52.516;10.528;2023-04-25T05:17:38;11.30;;;2.05;;
76107;SDS011;64834;52.516;10.528;2023-04-25T05:20:05;8.93;;;1.95;;
76107;SDS011;64834;52.516;10.528;2023-04-25T05:22:36;18.67;;;2.72;;
76107;SDS011;64834;52.516;10.528;2023-04-25T05:25:01;8.57;;;2.50;;
76107;SDS011;64834;52.516;10.528;2023-04-25T05:27:27;7.88;;;2.28;;
76107;SDS011;64834;52.516;10.528;2023-04-25T05:29:52;7.75;;;2.35;;
76107;SDS011;64834;52.516;10.528;2023-04-25T05:32:17;14.15;;;2.35;;
76107;SDS011;64834;52.516;10.528;2023-04-25T05:34:43;12.75;;;2.42;;
76107;SDS011;64834;52.516;10.528;2023-04-25T05:37:08;13.85;;;3.00;;
76107;SDS011;64834;52.516;10.528;2023-04-25T05:39:34;5.72;;;2.25;;
76107;SDS011;64834;52.516;10.528;2023-04-25T05:41:59;12.90;;;2.38;;
76107;SDS011;64834;52.516;10.528;2023-04-25T05:44:24;15.43;;;2.40;;
76107;SDS011;64834;52.516;10.528;2023-04-25T05:46:50;11.57;;;1.80;;
76107;SDS011;64834;52.516;10.528;2023-04-25T05:49:15;10.77;;;2.40;;
76107;SDS011;64834;52.516;10.528;2023-04-25T05:51:41;10.45;;;2.63;;
76107;SDS011;64834;52.516;10.528;2023-04-25T05:54:06;12.35;;;2.80;;
76107;SDS011;64834;52.516;10.528;2023-04-25T05:56:31;16.27;;;2.60;;
76107;SDS011;64834;52.516;10.528;2023-04-25T05:58:57;9.60;;;1.65;;
76107;SDS011;64834;52.516;10.528;2023-04-25T06:01:22;9.23;;;2.42;;
76107;SDS011;64834;52.516;10.528;2023-04-25T06:03:48;14.43;;;2.88;;
76107;SDS011;64834;52.516;10.528;2023-04-25T06:06:13;12.38;;;2.60;;
76107;SDS011;64834;52.516;10.528;2023-04-25T06:08:39;11.90;;;2.15;;
76107;SDS011;64834;52.516;10.528;2023-04-25T06:11:05;9.70;;;2.03;;
76107;SDS011;64834;52.516;10.528;2023-04-25T06:13:31;6.70;;;1.60;;
76107;SDS011;64834;52.516;10.528;2023-04-25T06:15:56;7.20;;;1.75;;
76107;SDS011;64834;52.516;10.528;2023-04-25T06:18:22;7.05;;;1.67;;
76107;SDS011;64834;52.516;10.528;2023-04-25T06:20:47;8.57;;;1.75;;
76107;SDS011;64834;52.516;10.528;2023-04-25T06:23:12;10.75;;;1.90;;
76107;SDS011;64834;52.516;10.528;2023-04-25T06:25:38;5.68;;;2.03;;
76107;SDS011;64834;52.516;10.528;2023-04-25T06:28:03;5.18;;;1.23;;
76107;SDS011;64834;52.516;10.528;2023-04-25T06:30:28;6.25;;;1.85;;
76107;SDS011;64834;52.516;10.528;2023-04-25T06:32:54;12.57;;;2.28;;
76107;SDS011;64834;52.516;10.528;2023-04-25T06:35:20;5.53;;;1.58;;
76107;SDS011;64834;52.516;10.528;2023-04-25T06:37:45;7.03;;;1.25;;
76107;SDS011;64834;52.516;10.528;2023-04-25T06:40:10;10.00;;;1.92;;
76107;SDS011;64834;52.516;10.528;2023-04-25T06:42:36;6.13;;;1.30;;
76107;SDS011;64834;52.516;10.528;2023-04-25T06:45:01;9.18;;;2.20;;
76107;SDS011;64834;52.516;10.528;2023-04-25T06:47:27;6.13;;;1.48;;
76107;SDS011;64834;52.516;10.528;2023-04-25T06:49:53;7.10;;;1.52;;
76107;SDS011;64834;52.516;10.528;2023-04-25T06:52:19;8.60;;;2.17;;
76107;SDS011;64834;52.516;10.528;2023-04-25T06:54:45;8.18;;;1.15;;
76107;SDS011;64834;52.516;10.528;2023-04-25T06:57:10;5.10;;;1.60;;
76107;SDS011;64834;52.516;10.528;2023-04-25T06:59:35;4.88;;;1.33;;
76107;SDS011;64834;52.516;10.528;2023-04-25T07:02:01;4.85;;;1.20;;
76107;SDS011;64834;52.516;10.528;2023-04-25T07:04:26;3.42;;;1.25;;
76107;SDS011;64834;52.516;10.528;2023-04-25T07:06:51;3.60;;;1.17;;
76107;SDS011;64834;52.516;10.528;2023-04-25T07:09:17;4.60;;;1.73;;
76107;SDS011;64834;52.516;10.528;2023-04-25T07:11:42;4.97;;;1.48;;
76107;SDS011;64834;52.516;10.528;2023-04-25T07:14:07;3.28;;;1.30;;
76107;SDS011;64834;52.516;10.528;2023-04-25T07:16:33;4.93;;;1.35;;
76107;SDS011;64834;52.516;10.528;2023-04-25T07:18:58;9.48;;;1.65;;
76107;SDS011;64834;52.516;10.528;2023-04-25T07:21:24;5.25;;;1.38;;
76107;SDS011;64834;52.516;10.528;2023-04-25T07:23:50;9.98;;;1.25;;
76107;SDS011;64834;52.516;10.528;2023-04-25T07:26:15;7.35;;;1.48;;
76107;SDS011;64834;52.516;10.528;2023-04-25T07:28:41;2.97;;;0.88;;
76107;SDS011;64834;52.516;10.528;2023-04-25T07:31:07;8.43;;;1.80;;
76107;SDS011;64834;52.516;10.528;2023-04-25T07:33:32;4.68;;;1.30;;
76107;SDS011;64834;52.516;10.528;2023-04-25T07:35:58;2.75;;;0.98;;
76107;SDS011;64834;52.516;10.528;2023-04-25T07:38:23;8.30;;;1.48;;
76107;SDS011;64834;52.516;10.528;2023-04-25T07:40:49;10.32;;;1.88;;
76107;SDS011;64834;52.516;10.528;2023-04-25T07:43:14;11.27;;;2.30;;
76107;SDS011;64834;52.516;10.528;2023-04-25T07:45:44;3.22;;;1.20;;
76107;SDS011;64834;52.516;10.528;2023-04-25T07:48:11;6.55;;;0.90;;
76107;SDS011;64834;52.516;10.528;2023-04-25T07:50:36;5.03;;;1.83;;
76107;SDS011;64834;52.516;10.528;2023-04-25T07:53:02;8.13;;;1.13;;
76107;SDS011;64834;52.516;10.528;2023-04-25T07:55:27;3.53;;;1.50;;
76107;SDS011;64834;52.516;10.528;2023-04-25T07:57:53;3.05;;;0.80;;
76107;SDS011;64834;52.516;10.528;2023-04-25T08:00:18;9.52;;;1.15;;
76107;SDS011;64834;52.516;10.528;2023-04-25T08:02:44;4.30;;;1.17;;
76107;SDS011;64834;52.516;10.528;2023-04-25T08:05:09;5.85;;;1.17;;
76107;SDS011;64834;52.516;10.528;2023-04-25T08:07:37;8.13;;;1.33;;
76107;SDS011;64834;52.516;10.528;2023-04-25T08:10:04;4.47;;;1.05;;
76107;SDS011;64834;52.516;10.528;2023-04-25T08:12:30;7.18;;;1.67;;
76107;SDS011;64834;52.516;10.528;2023-04-25T08:14:55;5.03;;;1.52;;
76107;SDS011;64834;52.516;10.528;2023-04-25T08:17:21;7.05;;;1.23;;
76107;SDS011;64834;52.516;10.528;2023-04-25T08:19:46;8.15;;;1.70;;
76107;SDS011;64834;52.516;10.528;2023-04-25T08:22:11;5.03;;;1.13;;
76107;SDS011;64834;52.516;10.528;2023-04-25T08:24:37;5.30;;;1.35;;
76107;SDS011;64834;52.516;10.528;2023-04-25T08:27:03;4.90;;;1.02;;
76107;SDS011;64834;52.516;10.528;2023-04-25T08:29:28;3.92;;;1.65;;
76107;SDS011;64834;52.516;10.528;2023-04-25T08:31:53;7.38;;;1.35;;
76107;SDS011;64834;52.516;10.528;2023-04-25T08:34:18;5.80;;;1.42;;
76107;SDS011;64834;52.516;10.528;2023-04-25T08:36:45;7.55;;;1.38;;
76107;SDS011;64834;52.516;10.528;2023-04-25T08:39:10;4.22;;;0.82;;
76107;SDS011;64834;52.516;10.528;2023-04-25T08:41:36;5.65;;;1.33;;
76107;SDS011;64834;52.516;10.528;2023-04-25T08:44:03;5.97;;;1.30;;
76107;SDS011;64834;52.516;10.528;2023-04-25T08:46:28;10.70;;;1.48;;
76107;SDS011;64834;52.516;10.528;2023-04-25T08:48:57;7.72;;;1.52;;
76107;SDS011;64834;52.516;10.528;2023-04-25T08:51:26;7.53;;;1.83;;
76107;SDS011;64834;52.516;10.528;2023-04-25T08:53:53;7.00;;;1.17;;
76107;SDS011;64834;52.516;10.528;2023-04-25T08:56:19;4.88;;;0.80;;
76107;SDS011;64834;52.516;10.528;2023-04-25T08:58:48;6.43;;;1.80;;
76107;SDS011;64834;52.516;10.528;2023-04-25T09:01:17;6.15;;;0.80;;
76107;SDS011;64834;52.516;10.528;2023-04-25T09:03:43;5.38;;;1.05;;
76107;SDS011;64834;52.516;10.528;2023-04-25T09:06:13;4.07;;;1.17;;
76107;SDS011;64834;52.516;10.528;2023-04-25T09:08:38;4.97;;;1.20;;
76107;SDS011;64834;52.516;10.528;2023-04-25T09:11:06;3.35;;;0.98;;
76107;SDS011;64834;52.516;10.528;2023-04-25T09:13:31;2.97;;;1.00;;
76107;SDS011;64834;52.516;10.528;2023-04-25T09:15:57;2.95;;;0.70;;
76107;SDS011;64834;52.516;10.528;2023-04-25T09:18:23;4.05;;;1.38;;
76107;SDS011;64834;52.516;10.528;2023-04-25T09:20:56;7.15;;;1.40;;
76107;SDS011;64834;52.516;10.528;2023-04-25T09:23:30;3.72;;;1.10;;
76107;SDS011;64834;52.516;10.528;2023-04-25T09:25:55;3.25;;;0.82;;
76107;SDS011;64834;52.516;10.528;2023-04-25T09:28:25;4.25;;;1.00;;
76107;SDS011;64834;52.516;10.528;2023-04-25T09:30:55;6.38;;;1.02;;
76107;SDS011;64834;52.516;10.528;2023-04-25T09:33:26;4.95;;;0.95;;
76107;SDS011;64834;52.516;10.528;2023-04-25T09:36:01;2.17;;;1.08;;
76107;SDS011;64834;52.516;10.528;2023-04-25T09:38:28;5.68;;;0.80;;
76107;SDS011;64834;52.516;10.528;2023-04-25T09:40:55;4.43;;;1.05;;
76107;SDS011;64834;52.516;10.528;2023-04-25T09:43:21;5.13;;;0.93;;
76107;SDS011;64834;52.516;10.528;2023-04-25T09:45:50;2.03;;;0.70;;
76107;SDS011;64834;52.516;10.528;2023-04-25T09:48:20;3.80;;;0.90;;
76107;SDS011;64834;52.516;10.528;2023-04-25T09:51:05;5.18;;;1.30;;
76107;SDS011;64834;52.516;10.528;2023-04-25T09:53:41;2.60;;;0.80;;
76107;SDS011;64834;52.516;10.528;2023-04-25T09:58:34;6.50;;;0.88;;
76107;SDS011;64834;52.516;10.528;2023-04-25T10:01:01;8.32;;;0.90;;
76107;SDS011;64834;52.516;10.528;2023-04-25T10:03:31;2.55;;;0.80;;
76107;SDS011;64834;52.516;10.528;2023-04-25T10:06:02;2.58;;;0.70;;
76107;SDS011;64834;52.516;10.528;2023-04-25T10:08:32;4.25;;;0.90;;
76107;SDS011;64834;52.516;10.528;2023-04-25T10:11:01;2.50;;;0.73;;
76107;SDS011;64834;52.516;10.528;2023-04-25T10:13:28;4.40;;;0.82;;
76107;SDS011;64834;52.516;10.528;2023-04-25T10:15:55;3.55;;;0.80;;
76107;SDS011;64834;52.516;10.528;2023-04-25T10:18:26;2.80;;;0.85;;
76107;SDS011;64834;52.516;10.528;2023-04-25T10:20:53;5.10;;;0.75;;
76107;SDS011;64834;52.516;10.528;2023-04-25T10:23:20;1.63;;;0.68;;
76107;SDS011;64834;52.516;10.528;2023-04-25T10:25:46;4.40;;;0.93;;
76107;SDS011;64834;52.516;10.528;2023-04-25T10:28:11;6.03;;;1.23;;
76107;SDS011;64834;52.516;10.528;2023-04-25T10:30:36;3.42;;;0.60;;
76107;SDS011;64834;52.516;10.528;2023-04-25T10:33:02;3.10;;;1.10;;
76107;SDS011;64834;52.516;10.528;2023-04-25T10:35:41;4.38;;;0.80;;
76107;SDS011;64834;52.516;10.528;2023-04-25T10:38:10;4.72;;;0.90;;
76107;SDS011;64834;52.516;10.528;2023-04-25T10:40:37;3.80;;;0.63;;
76107;SDS011;64834;52.516;10.528;2023-04-25T10:45:56;6.07;;;0.80;;
76107;SDS011;64834;52.516;10.528;2023-04-25T10:48:25;3.20;;;1.00;;
76107;SDS011;64834;52.516;10.528;2023-04-25T10:51:06;3.83;;;0.98;;
76107;SDS011;64834;52.516;10.528;2023-04-25T10:53:35;4.57;;;0.90;;
76107;SDS011;64834;52.516;10.528;2023-04-25T10:56:00;3.30;;;0.57;;
76107;SDS011;64834;52.516;10.528;2023-04-25T10:58:42;6.03;;;1.27;;
76107;SDS011;64834;52.516;10.528;2023-04-25T11:01:08;2.45;;;0.98;;
76107;SDS011;64834;52.516;10.528;2023-04-25T11:03:38;4.85;;;0.90;;
76107;SDS011;64834;52.516;10.528;2023-04-25T11:06:06;1.88;;;0.68;;
76107;SDS011;64834;52.516;10.528;2023-04-25T11:08:49;1.20;;;0.57;;
76107;SDS011;64834;52.516;10.528;2023-04-25T11:11:16;2.50;;;0.57;;
76107;SDS011;64834;52.516;10.528;2023-04-25T11:13:43;4.00;;;0.80;;
76107;SDS011;64834;52.516;10.528;2023-04-25T11:16:08;2.33;;;0.50;;
76107;SDS011;64834;52.516;10.528;2023-04-25T11:18:33;3.40;;;0.88;;
76107;SDS011;64834;52.516;10.528;2023-04-25T11:20:59;2.08;;;0.65;;
76107;SDS011;64834;52.516;10.528;2023-04-25T11:23:25;2.22;;;0.50;;
76107;SDS011;64834;52.516;10.528;2023-04-25T11:25:51;4.63;;;0.60;;
76107;SDS011;64834;52.516;10.528;2023-04-25T11:28:20;2.50;;;0.77;;
76107;SDS011;64834;52.516;10.528;2023-04-25T11:30:50;3.53;;;0.55;;
76107;SDS011;64834;52.516;10.528;2023-04-25T11:33:16;2.72;;;0.50;;
76107;SDS011;64834;52.516;10.528;2023-04-25T11:35:41;5.93;;;1.08;;
76107;SDS011;64834;52.516;10.528;2023-04-25T11:38:07;3.50;;;1.13;;
76107;SDS011;64834;52.516;10.528;2023-04-25T11:40:32;2.33;;;0.65;;
76107;SDS011;64834;52.516;10.528;2023-04-25T11:42:59;4.30;;;0.52;;
76107;SDS011;64834;52.516;10.528;2023-04-25T11:45:25;1.77;;;0.57;;
76107;SDS011;64834;52.516;10.528;2023-04-25T11:47:51;2.53;;;0.40;;
76107;SDS011;64834;52.516;10.528;2023-04-25T11:50:17;2.10;;;0.52;;
76107;SDS011;64834;52.516;10.528;2023-04-25T11:52:43;3.13;;;0.55;;
76107;SDS011;64834;52.516;10.528;2023-04-25T11:55:12;3.47;;;0.57;;
76107;SDS011;64834;52.516;10.528;2023-04-25T11:57:38;3.42;;;0.60;;
76107;SDS011;64834;52.516;10.528;2023-04-25T12:00:06;2.58;;;0.60;;
76107;SDS011;64834;52.516;10.528;2023-04-25T12:02:36;0.60;;;0.13;;
76107;SDS011;64834;52.516;10.528;2023-04-25T12:05:02;2.38;;;0.50;;
76107;SDS011;64834;52.516;10.528;2023-04-25T12:07:31;1.23;;;0.50;;
76107;SDS011;64834;52.516;10.528;2023-04-25T12:09:56;1.48;;;0.50;;
76107;SDS011;64834;52.516;10.528;2023-04-25T12:12:22;2.72;;;0.40;;
76107;SDS011;64834;52.516;10.528;2023-04-25T12:14:52;1.27;;;0.43;;
76107;SDS011;64834;52.516;10.528;2023-04-25T12:17:20;2.17;;;0.98;;
76107;SDS011;64834;52.516;10.528;2023-04-25T12:19:46;1.63;;;0.32;;
76107;SDS011;64834;52.516;10.528;2023-04-25T12:22:22;9.98;;;0.75;;
76107;SDS011;64834;52.516;10.528;2023-04-25T12:24:48;6.93;;;0.90;;
76107;SDS011;64834;52.516;10.528;2023-04-25T12:27:14;1.95;;;0.75;;
76107;SDS011;64834;52.516;10.528;2023-04-25T12:29:50;3.92;;;0.95;;
76107;SDS011;64834;52.516;10.528;2023-04-25T12:32:16;5.03;;;1.08;;
76107;SDS011;64834;52.516;10.528;2023-04-25T12:34:42;0.63;;;0.38;;
76107;SDS011;64834;52.516;10.528;2023-04-25T12:37:08;3.15;;;0.70;;
76107;SDS011;64834;52.516;10.528;2023-04-25T12:39:33;1.60;;;0.40;;
76107;SDS011;64834;52.516;10.528;2023-04-25T12:41:58;4.35;;;0.90;;
76107;SDS011;64834;52.516;10.528;2023-04-25T12:44:24;1.83;;;0.40;;
76107;SDS011;64834;52.516;10.528;2023-04-25T12:46:49;3.88;;;0.80;;
76107;SDS011;64834;52.516;10.528;2023-04-25T12:49:15;5.07;;;0.75;;
76107;SDS011;64834;52.516;10.528;2023-04-25T12:51:40;1.30;;;0.47;;
76107;SDS011;64834;52.516;10.528;2023-04-25T12:54:06;3.55;;;0.63;;
76107;SDS011;64834;52.516;10.528;2023-04-25T12:56:33;4.95;;;0.90;;
76107;SDS011;64834;52.516;10.528;2023-04-25T12:58:58;1.40;;;0.40;;
76107;SDS011;64834;52.516;10.528;2023-04-25T13:01:24;8.10;;;0.93;;
76107;SDS011;64834;52.516;10.528;2023-04-25T13:03:51;4.32;;;0.40;;
76107;SDS011;64834;52.516;10.528;2023-04-25T13:06:17;4.72;;;0.80;;
76107;SDS011;64834;52.516;10.528;2023-04-25T13:08:43;0.73;;;0.32;;
76107;SDS011;64834;52.516;10.528;2023-04-25T13:11:09;0.52;;;0.20;;
76107;SDS011;64834;52.516;10.528;2023-04-25T13:13:35;3.45;;;0.60;;
76107;SDS011;64834;52.516;10.528;2023-04-25T13:16:04;2.38;;;0.50;;
76107;SDS011;64834;52.516;10.528;2023-04-25T13:18:30;5.63;;;0.60;;
76107;SDS011;64834;52.516;10.528;2023-04-25T13:20:56;3.72;;;0.85;;
76107;SDS011;64834;52.516;10.528;2023-04-25T13:23:22;1.75;;;0.40;;
76107;SDS011;64834;52.516;10.528;2023-04-25T13:25:48;0.95;;;0.32;;
76107;SDS011;64834;52.516;10.528;2023-04-25T13:28:13;1.42;;;0.40;;
76107;SDS011;64834;52.516;10.528;2023-04-25T13:30:39;3.35;;;0.57;;
76107;SDS011;64834;52.516;10.528;2023-04-25T13:33:05;2.13;;;0.32;;
76107;SDS011;64834;52.516;10.528;2023-04-25T13:35:31;2.95;;;0.32;;
76107;SDS011;64834;52.516;10.528;2023-04-25T13:37:58;4.40;;;0.40;;
76107;SDS011;64834;52.516;10.528;2023-04-25T13:40:23;1.65;;;0.43;;
76107;SDS011;64834;52.516;10.528;2023-04-25T13:42:48;1.73;;;0.40;;
76107;SDS011;64834;52.516;10.528;2023-04-25T13:45:14;3.38;;;0.77;;
76107;SDS011;64834;52.516;10.528;2023-04-25T13:47:39;3.90;;;0.70;;
76107;SDS011;64834;52.516;10.528;2023-04-25T13:50:05;0.95;;;0.40;;
76107;SDS011;64834;52.516;10.528;2023-04-25T13:52:32;1.77;;;0.52;;
76107;SDS011;64834;52.516;10.528;2023-04-25T13:54:57;1.23;;;0.30;;
76107;SDS011;64834;52.516;10.528;2023-04-25T13:57:23;3.03;;;0.52;;
76107;SDS011;64834;52.516;10.528;2023-04-25T13:59:49;2.03;;;0.50;;
76107;SDS011;64834;52.516;10.528;2023-04-25T14:02:15;1.52;;;0.50;;
76107;SDS011;64834;52.516;10.528;2023-04-25T14:04:40;1.27;;;0.40;;
76107;SDS011;64834;52.516;10.528;2023-04-25T14:07:06;1.92;;;0.50;;
76107;SDS011;64834;52.516;10.528;2023-04-25T14:09:31;1.27;;;0.30;;
76107;SDS011;64834;52.516;10.528;2023-04-25T14:11:56;1.80;;;0.50;;
76107;SDS011;64834;52.516;10.528;2023-04-25T14:14:22;2.53;;;0.88;;
76107;SDS011;64834;52.516;10.528;2023-04-25T14:16:48;2.65;;;0.68;;
76107;SDS011;64834;52.516;10.528;2023-04-25T14:19:15;3.42;;;0.68;;
76107;SDS011;64834;52.516;10.528;2023-04-25T14:21:41;2.22;;;0.50;;
76107;SDS011;64834;52.516;10.528;2023-04-25T14:24:06;4.45;;;0.70;;
76107;SDS011;64834;52.516;10.528;2023-04-25T14:26:33;2.80;;;0.60;;
76107;SDS011;64834;52.516;10.528;2023-04-25T14:28:58;1.13;;;0.50;;
76107;SDS011;64834;52.516;10.528;2023-04-25T14:31:23;0.88;;;0.32;;